EKBI/BLL METAR and TAF weather

Enter ICAO airport designator
Station Type Date Time Source
EKBI METAR 2022/01/25 04:20 UTC NOAA

EKBI 250420Z AUTO 27009KT 9999 -DZ OVC007/// 06/06 Q1029 REDZRA


Station Type Date Time Source
EKBI Decoded METAR 2022/01/25 04:20 UTC NOAA

Billund Lufthavn, Denmark (EKBI) 55-44N 009-10E 79M
Jan 24, 2022 - 11:20 PM EST / 2022.01.25 0420 UTC
Wind: from the W (270 degrees) at 10 MPH (9 KT):0
Visibility: greater than 7 mile(s):0
Sky conditions: overcast
Weather: light drizzle
Temperature: 42 F (6 C)
Dew Point: 42 F (6 C)
Relative Humidity: 100%
Pressure (altimeter): 30.39 in. Hg (1029 hPa)
ob: EKBI 250420Z AUTO 27009KT 9999 -DZ OVC007/// 06/06 Q1029 REDZRA
cycle: 4

Station Type Date Time Source
EKBI TAF 2022/01/24 18:31 UTC NOAA

TAF EKBI 241709Z 2418/2518 27010KT 9000 BKN015
TEMPO 2418/2424 4000 RADZ BR BKN004
BECMG 2500/2502 1200 BR BKN002
TEMPO 2502/2512 3000 RADZ BKN006
BECMG 2512/2514 6000 NSW BKN020
BECMG 2516/2518 0800 FG VV002

Example: see airport list